createdAt,value
2023-11-02T00:01:10.336Z,5.45
2023-11-02T00:03:42.456Z,6.35
2023-11-02T00:06:30.232Z,6.22
2023-11-02T00:09:31.757Z,6.05
2023-11-02T00:12:03.341Z,9.00
2023-11-02T00:14:53.759Z,10.55
2023-11-02T00:17:48.336Z,7.72
2023-11-02T00:20:29.695Z,6.40
2023-11-02T00:22:57.491Z,6.22
2023-11-02T00:25:48.536Z,6.10
2023-11-02T00:28:16.593Z,6.08
2023-11-02T00:30:46.410Z,5.53
2023-11-02T00:33:15.139Z,5.55
2023-11-02T00:35:49.457Z,5.40
2023-11-02T00:38:26.856Z,5.40
2023-11-02T00:40:56.898Z,5.10
2023-11-02T00:43:25.529Z,4.20
2023-11-02T00:45:53.885Z,4.58
2023-11-02T00:48:29.461Z,4.33
2023-11-02T00:51:21.234Z,4.60
2023-11-02T00:53:59.192Z,4.60
2023-11-02T00:56:32.419Z,4.70
2023-11-02T00:59:02.432Z,4.62
2023-11-02T01:01:30.195Z,4.08
2023-11-02T01:04:03.374Z,5.37
2023-11-02T01:06:34.279Z,4.55
2023-11-02T01:09:06.632Z,5.62
2023-11-02T01:11:37.598Z,6.55
2023-11-02T01:14:13.786Z,6.95
2023-11-02T01:16:42.962Z,6.30
2023-11-02T01:19:31.239Z,5.85
2023-11-02T01:21:59.742Z,5.20
2023-11-02T01:24:32.356Z,5.30
2023-11-02T01:27:01.558Z,5.58
2023-11-02T01:29:30.742Z,5.87
2023-11-02T01:32:01.259Z,6.42
2023-11-02T01:34:30.311Z,6.55
2023-11-02T01:36:58.354Z,6.70
2023-11-02T01:39:49.815Z,6.40
2023-11-02T01:42:24.323Z,5.35
2023-11-02T01:45:12.274Z,5.00
2023-11-02T01:48:02.047Z,4.40
2023-11-02T01:50:48.335Z,4.00
2023-11-02T01:53:54.703Z,6.53
2023-11-02T01:56:55.136Z,3.72
2023-11-02T01:59:40.235Z,2.87
2023-11-02T02:02:30.832Z,3.27
2023-11-02T02:05:05.263Z,3.40
2023-11-02T02:07:44.598Z,3.75
2023-11-02T02:10:17.498Z,4.05
2023-11-02T02:13:00.474Z,5.15
2023-11-02T02:15:46.418Z,2.90
2023-11-02T02:18:40.390Z,2.83
2023-11-02T02:21:16.925Z,2.40
2023-11-02T02:24:08.245Z,2.92
2023-11-02T02:27:00.307Z,4.72
2023-11-02T02:29:51.009Z,3.37
2023-11-02T02:33:00.877Z,3.90
2023-11-02T02:35:34.743Z,9.18
2023-11-02T02:40:50.841Z,4.45
2023-11-02T02:43:20.549Z,3.00
2023-11-02T02:45:50.361Z,2.40
2023-11-02T02:48:19.460Z,2.00
2023-11-02T02:50:51.187Z,2.00
2023-11-02T02:53:20.526Z,2.27
2023-11-02T02:55:51.489Z,2.12
2023-11-02T02:58:22.812Z,1.90
2023-11-02T03:00:51.286Z,1.87
2023-11-02T03:03:24.234Z,2.10
2023-11-02T03:05:54.859Z,2.83
2023-11-02T03:08:24.767Z,3.47
2023-11-02T03:10:53.437Z,3.30
2023-11-02T03:13:22.818Z,3.17
2023-11-02T03:15:53.040Z,2.50
2023-11-02T03:18:27.295Z,18.17
2023-11-02T03:20:55.789Z,3.60
2023-11-02T03:23:37.852Z,3.85
2023-11-02T03:26:31.352Z,3.72
2023-11-02T03:29:20.078Z,3.87
2023-11-02T03:32:26.821Z,3.00
2023-11-02T03:35:17.536Z,2.12
2023-11-02T03:38:12.361Z,2.12
2023-11-02T03:41:04.992Z,4.62
2023-11-02T03:43:40.888Z,3.47
2023-11-02T03:46:13.948Z,4.35
2023-11-02T03:48:48.713Z,4.17
2023-11-02T03:51:30.596Z,3.40
2023-11-02T03:54:20.622Z,3.15
2023-11-02T03:57:20.189Z,3.40
2023-11-02T04:00:10.164Z,6.28
2023-11-02T04:03:04.215Z,12.93
2023-11-02T04:05:39.240Z,14.78
2023-11-02T04:08:19.575Z,11.63
2023-11-02T04:11:16.178Z,12.47
2023-11-02T04:14:05.158Z,8.93
2023-11-02T04:16:32.935Z,4.53
2023-11-02T04:19:02.728Z,4.58
2023-11-02T04:21:30.721Z,5.00
2023-11-02T04:23:58.518Z,5.37
2023-11-02T04:26:29.579Z,5.25
2023-11-02T04:28:57.605Z,7.12
2023-11-02T04:31:25.478Z,5.75
2023-11-02T04:33:53.726Z,5.95
2023-11-02T04:36:21.524Z,6.62
2023-11-02T04:38:51.100Z,10.23
2023-11-02T04:41:21.066Z,9.63
2023-11-02T04:43:48.980Z,9.28
2023-11-02T04:46:16.836Z,12.78
2023-11-02T04:48:44.588Z,14.23
2023-11-02T04:51:12.428Z,13.98
2023-11-02T04:53:39.988Z,13.60
2023-11-02T04:56:08.450Z,12.68
2023-11-02T04:58:36.459Z,11.70
2023-11-02T05:01:05.017Z,11.48
2023-11-02T05:03:32.831Z,10.80
2023-11-02T05:06:00.399Z,10.38
2023-11-02T05:08:28.039Z,10.13
2023-11-02T05:10:55.963Z,7.75
2023-11-02T05:13:23.552Z,4.33
2023-11-02T05:15:56.245Z,2.70
2023-11-02T05:18:20.794Z,3.02
2023-11-02T05:20:48.599Z,3.12
2023-11-02T05:23:16.204Z,2.75
2023-11-02T05:25:45.197Z,4.33
2023-11-02T05:28:12.907Z,4.87
2023-11-02T05:30:41.653Z,4.95
2023-11-02T05:33:09.575Z,5.33
2023-11-02T05:35:37.341Z,5.92
2023-11-02T05:38:05.134Z,6.22
2023-11-02T05:40:32.984Z,5.58
2023-11-02T05:43:00.802Z,5.08
2023-11-02T05:45:28.587Z,5.10
2023-11-02T05:47:56.301Z,4.78
2023-11-02T05:50:26.450Z,4.35
2023-11-02T05:52:57.528Z,3.80
2023-11-02T05:55:25.195Z,3.55
2023-11-02T05:57:53.938Z,4.08
2023-11-02T06:00:22.440Z,4.45
2023-11-02T06:02:50.128Z,5.22
2023-11-02T06:05:17.566Z,6.62
2023-11-02T06:07:46.863Z,8.58
2023-11-02T06:10:14.711Z,9.05
2023-11-02T06:12:42.507Z,9.58
2023-11-02T06:15:11.914Z,9.75
2023-11-02T06:17:39.699Z,8.65
2023-11-02T06:20:09.368Z,8.03
2023-11-02T06:22:36.896Z,7.00
2023-11-02T06:25:05.913Z,7.53
2023-11-02T06:27:33.911Z,6.83
2023-11-02T06:30:01.607Z,5.83
2023-11-02T06:32:29.633Z,6.03
2023-11-02T06:34:57.450Z,6.53
2023-11-02T06:37:25.123Z,6.05
2023-11-02T06:39:52.863Z,4.37
2023-11-02T06:42:20.502Z,4.37
2023-11-02T06:44:48.252Z,4.10
2023-11-02T06:47:16.258Z,4.70
2023-11-02T06:49:44.969Z,4.92
2023-11-02T06:52:12.707Z,6.70
2023-11-02T06:54:42.293Z,5.53
2023-11-02T06:57:10.053Z,5.40
2023-11-02T06:59:38.078Z,5.78
2023-11-02T07:02:06.795Z,5.37
2023-11-02T07:04:34.540Z,5.45
2023-11-02T07:07:02.526Z,5.90
2023-11-02T07:09:30.695Z,4.30
2023-11-02T07:11:58.478Z,4.15
2023-11-02T07:14:25.930Z,4.33
2023-11-02T07:16:53.501Z,5.58
2023-11-02T07:19:21.302Z,5.70
2023-11-02T07:21:48.652Z,5.83
2023-11-02T07:24:16.329Z,5.55
2023-11-02T07:26:43.872Z,4.92
2023-11-02T07:29:11.575Z,4.95
2023-11-02T07:31:41.190Z,5.05
2023-11-02T07:34:09.103Z,5.40
2023-11-02T07:36:36.812Z,5.10
2023-11-02T07:39:04.983Z,5.03
2023-11-02T07:41:33.290Z,5.15
2023-11-02T07:44:01.125Z,5.17
2023-11-02T07:46:29.075Z,5.67
2023-11-02T07:48:56.676Z,4.58
2023-11-02T07:51:24.434Z,5.10
2023-11-02T07:53:52.187Z,4.78
2023-11-02T07:56:19.942Z,3.90
2023-11-02T07:58:47.494Z,4.17
2023-11-02T08:01:20.001Z,3.55
2023-11-02T08:03:48.102Z,4.05
2023-11-02T08:06:16.160Z,3.92
2023-11-02T08:08:44.917Z,4.53
2023-11-02T08:11:12.553Z,5.65
2023-11-02T08:13:40.431Z,7.28
2023-11-02T08:16:09.479Z,5.30
2023-11-02T08:18:37.322Z,4.25
2023-11-02T08:21:09.011Z,3.95
2023-11-02T08:23:36.954Z,3.90
2023-11-02T08:26:05.285Z,3.27
2023-11-02T08:28:34.605Z,2.90
2023-11-02T08:31:02.586Z,2.80
2023-11-02T08:33:30.376Z,3.12
2023-11-02T08:35:58.285Z,3.77
2023-11-02T08:38:26.081Z,3.72
2023-11-02T08:40:53.791Z,4.10
2023-11-02T08:43:21.765Z,3.95
2023-11-02T08:45:49.387Z,4.40
2023-11-02T08:48:17.030Z,5.75
2023-11-02T08:50:44.720Z,5.47
2023-11-02T08:53:12.268Z,5.50
2023-11-02T08:55:39.919Z,5.30
2023-11-02T08:58:07.282Z,5.15
2023-11-02T09:00:35.775Z,4.45
2023-11-02T09:03:03.348Z,4.67
2023-11-02T09:05:31.403Z,5.00
2023-11-02T09:07:59.196Z,4.85
2023-11-02T09:10:26.780Z,5.30
2023-11-02T09:12:55.318Z,5.12
2023-11-02T09:15:23.058Z,4.42
2023-11-02T09:17:51.216Z,4.35
2023-11-02T09:20:18.755Z,4.30
2023-11-02T09:22:46.313Z,5.60
2023-11-02T09:25:14.132Z,5.30
2023-11-02T09:27:41.733Z,5.28
2023-11-02T09:30:10.785Z,5.05
2023-11-02T09:32:38.548Z,4.65
2023-11-02T09:35:07.070Z,3.58
2023-11-02T09:37:37.397Z,3.50
2023-11-02T09:40:07.349Z,3.40
2023-11-02T09:42:35.491Z,3.50
2023-11-02T09:45:04.502Z,3.20
2023-11-02T09:47:33.218Z,2.90
2023-11-02T09:50:00.799Z,2.92
2023-11-02T09:52:28.860Z,2.52
2023-11-02T09:54:56.898Z,3.02
2023-11-02T09:57:25.136Z,3.02
2023-11-02T09:59:52.845Z,2.95
2023-11-02T10:02:23.049Z,3.90
2023-11-02T10:04:50.929Z,3.77
2023-11-02T10:07:19.125Z,3.87
2023-11-02T10:09:49.893Z,2.47
2023-11-02T10:12:18.981Z,2.37
2023-11-02T10:14:47.364Z,2.47
2023-11-02T10:17:16.625Z,2.08
2023-11-02T10:19:44.436Z,2.12
2023-11-02T10:22:12.243Z,2.20
2023-11-02T10:24:39.950Z,1.98
2023-11-02T10:27:07.816Z,5.30
2023-11-02T10:29:36.492Z,5.60
2023-11-02T10:32:05.784Z,3.05
2023-11-02T10:34:37.374Z,2.75
2023-11-02T10:37:05.416Z,3.62
2023-11-02T10:39:33.474Z,4.22
2023-11-02T10:42:04.837Z,3.60
2023-11-02T10:44:36.891Z,2.98
2023-11-02T10:47:06.306Z,2.67
2023-11-02T10:49:39.015Z,3.27
2023-11-02T10:52:09.124Z,2.90
2023-11-02T10:54:45.312Z,4.10
2023-11-02T10:57:18.767Z,4.15
2023-11-02T10:59:48.068Z,4.33
2023-11-02T11:02:17.955Z,4.10
2023-11-02T11:04:50.170Z,5.15
2023-11-02T11:07:19.377Z,6.67
2023-11-02T11:09:50.828Z,4.47
2023-11-02T11:12:20.064Z,3.60
2023-11-02T11:14:48.626Z,3.50
2023-11-02T11:17:16.648Z,3.75
2023-11-02T11:19:44.599Z,3.92
2023-11-02T11:22:16.671Z,3.95
2023-11-02T11:24:54.528Z,6.03
2023-11-02T11:27:33.927Z,4.80
2023-11-02T11:30:04.554Z,4.35
2023-11-02T11:32:36.782Z,6.87
2023-11-02T11:35:10.487Z,3.92
2023-11-02T11:37:51.378Z,3.80
2023-11-02T11:40:29.584Z,3.00
2023-11-02T11:43:08.401Z,2.72
2023-11-02T11:45:50.383Z,3.12
2023-11-02T11:48:39.741Z,3.15
2023-11-02T11:51:41.836Z,3.05
2023-11-02T11:54:16.003Z,2.95
2023-11-02T11:56:45.875Z,3.02
2023-11-02T11:59:13.579Z,3.10
2023-11-02T12:01:41.461Z,3.00
2023-11-02T12:04:10.016Z,2.60
2023-11-02T12:06:44.470Z,3.30
2023-11-02T12:09:13.757Z,3.08
2023-11-02T12:11:45.140Z,3.92
2023-11-02T12:14:19.701Z,3.65
2023-11-02T12:16:52.150Z,3.58
2023-11-02T12:19:20.259Z,2.87
2023-11-02T12:21:57.472Z,3.20
2023-11-02T12:24:25.845Z,2.90
2023-11-02T12:27:13.156Z,3.22
2023-11-02T12:30:00.370Z,2.27
2023-11-02T12:32:28.426Z,3.02
2023-11-02T12:34:56.379Z,4.05
2023-11-02T12:37:24.476Z,5.58
2023-11-02T12:40:00.959Z,4.20
2023-11-02T12:42:28.754Z,3.30
2023-11-02T12:44:58.338Z,3.47
2023-11-02T12:47:41.367Z,4.42
2023-11-02T12:50:31.060Z,3.30
2023-11-02T12:52:58.887Z,3.60
2023-11-02T12:55:27.869Z,3.75
2023-11-02T12:57:55.709Z,4.15
2023-11-02T13:00:25.086Z,3.20
2023-11-02T13:02:52.899Z,3.47
2023-11-02T13:05:26.976Z,3.30
2023-11-02T13:07:55.006Z,2.58
2023-11-02T13:10:24.513Z,18.10
2023-11-02T13:12:52.171Z,5.90
2023-11-02T13:15:20.056Z,8.95
2023-11-02T13:17:47.893Z,12.37
2023-11-02T13:20:18.359Z,4.92
2023-11-02T13:22:48.487Z,3.67
2023-11-02T13:25:17.870Z,3.65
2023-11-02T13:27:46.471Z,19.55
2023-11-02T13:30:18.207Z,11.30
2023-11-02T13:32:46.323Z,5.87
2023-11-02T13:35:14.119Z,5.72
2023-11-02T13:37:42.390Z,3.25
2023-11-02T13:40:11.030Z,2.65
2023-11-02T13:42:38.758Z,2.67
2023-11-02T13:45:07.391Z,3.40
2023-11-02T13:47:39.659Z,3.20
2023-11-02T13:50:10.404Z,3.37
2023-11-02T13:52:38.175Z,3.22
2023-11-02T13:55:07.414Z,3.08
2023-11-02T13:57:35.166Z,3.08
2023-11-02T14:00:04.603Z,3.35
2023-11-02T14:02:34.379Z,4.70
2023-11-02T14:05:03.171Z,6.15
2023-11-02T14:07:31.382Z,10.82
2023-11-02T14:10:00.085Z,13.50
2023-11-02T14:12:28.356Z,34.90
2023-11-02T14:14:56.293Z,15.85
2023-11-02T14:17:25.484Z,16.90
2023-11-02T14:19:54.132Z,19.92
2023-11-02T14:22:22.773Z,19.27
2023-11-02T14:24:52.423Z,19.37
2023-11-02T14:27:23.215Z,16.40
2023-11-02T14:29:52.793Z,14.80
2023-11-02T14:32:20.441Z,13.55
2023-11-02T14:34:48.189Z,13.80
2023-11-02T14:37:15.778Z,16.95
2023-11-02T14:39:44.862Z,13.30
2023-11-02T14:42:13.429Z,10.53
2023-11-02T14:44:41.191Z,10.82
2023-11-02T14:47:11.777Z,10.60
2023-11-02T14:49:39.608Z,10.13
2023-11-02T14:52:07.399Z,9.15
2023-11-02T14:54:44.010Z,16.90
2023-11-02T14:57:09.006Z,19.48
2023-11-02T14:59:40.074Z,18.50
2023-11-02T15:02:08.369Z,17.60
2023-11-02T15:04:37.075Z,18.15
2023-11-02T15:07:04.984Z,19.42
2023-11-02T15:09:34.188Z,43.52
2023-11-02T15:12:01.920Z,37.35
2023-11-02T15:14:30.045Z,37.70
2023-11-02T15:16:57.818Z,36.75
2023-11-02T15:19:26.187Z,36.50
2023-11-02T15:21:53.861Z,40.73
2023-11-02T15:24:21.654Z,49.95
2023-11-02T15:26:50.375Z,59.20
2023-11-02T15:29:18.281Z,67.30
2023-11-02T15:31:45.891Z,68.35
2023-11-02T15:34:14.317Z,69.00
2023-11-02T15:36:42.333Z,52.50
2023-11-02T15:39:10.715Z,31.75
2023-11-02T15:41:38.132Z,36.10
2023-11-02T15:44:06.600Z,39.45
2023-11-02T15:46:43.264Z,42.60
2023-11-02T15:49:11.496Z,56.95
2023-11-02T15:51:45.024Z,61.58
2023-11-02T15:54:14.032Z,75.60
2023-11-02T15:56:41.490Z,52.78
2023-11-02T15:59:09.029Z,43.63
2023-11-02T16:01:37.659Z,52.35
2023-11-02T16:04:05.863Z,69.20
2023-11-02T16:06:34.292Z,74.60
2023-11-02T16:09:01.753Z,70.72
2023-11-02T16:11:29.466Z,71.67
2023-11-02T16:13:58.942Z,71.50
2023-11-02T16:16:26.466Z,68.17
2023-11-02T16:18:54.108Z,70.75
2023-11-02T16:21:30.521Z,66.07
2023-11-02T16:23:58.376Z,59.93
2023-11-02T16:26:26.347Z,52.73
2023-11-02T16:28:55.166Z,44.45
2023-11-02T16:31:25.168Z,29.95
2023-11-02T16:33:55.856Z,23.32
2023-11-02T16:36:44.295Z,23.02
2023-11-02T16:39:13.994Z,23.57
2023-11-02T16:41:46.473Z,50.08
2023-11-02T16:44:15.195Z,68.95
2023-11-02T16:46:50.894Z,48.68
2023-11-02T16:49:20.907Z,35.15
2023-11-02T16:51:50.551Z,29.48
2023-11-02T16:54:20.301Z,20.00
2023-11-02T16:56:48.016Z,19.67
2023-11-02T16:59:17.038Z,26.48
2023-11-02T17:01:47.960Z,27.65
2023-11-02T17:04:15.596Z,23.98
2023-11-02T17:06:43.573Z,24.00
2023-11-02T17:09:14.271Z,20.40
2023-11-02T17:11:41.806Z,17.20
2023-11-02T17:14:11.225Z,14.47
2023-11-02T17:16:42.004Z,15.45
2023-11-02T17:19:10.507Z,11.95
2023-11-02T17:21:39.651Z,9.50
2023-11-02T17:24:08.266Z,9.18
2023-11-02T17:26:36.194Z,8.15
2023-11-02T17:29:04.148Z,8.80
2023-11-02T17:31:31.929Z,11.20
2023-11-02T17:33:59.854Z,11.45
2023-11-02T17:36:28.604Z,10.75
2023-11-02T17:39:01.792Z,16.25
2023-11-02T17:41:31.431Z,15.20
2023-11-02T17:43:59.260Z,22.93
2023-11-02T17:46:26.931Z,23.22
2023-11-02T17:48:54.669Z,21.73
2023-11-02T17:51:24.235Z,17.57
2023-11-02T17:53:53.015Z,13.62
2023-11-02T17:56:20.417Z,15.63
2023-11-02T17:58:48.014Z,10.88
2023-11-02T18:01:16.453Z,11.57
2023-11-02T18:03:44.656Z,13.00
2023-11-02T18:06:12.389Z,14.53
2023-11-02T18:08:40.240Z,13.60
2023-11-02T18:11:07.831Z,18.52
2023-11-02T18:13:38.311Z,14.80
2023-11-02T18:16:06.004Z,9.35
2023-11-02T18:18:34.154Z,9.55
2023-11-02T18:21:06.077Z,8.28
2023-11-02T18:23:35.666Z,8.10
2023-11-02T18:26:07.017Z,7.25
2023-11-02T18:28:34.757Z,6.33
2023-11-02T18:31:07.661Z,6.42
2023-11-02T18:33:35.622Z,7.03
2023-11-02T18:36:10.918Z,7.67
2023-11-02T18:38:42.808Z,7.87
2023-11-02T18:41:13.211Z,10.32
2023-11-02T18:43:43.449Z,11.15
2023-11-02T18:46:20.803Z,12.03
2023-11-02T18:48:49.598Z,10.40
2023-11-02T18:51:22.326Z,9.80
2023-11-02T18:53:49.975Z,8.47
2023-11-02T18:56:20.504Z,8.85
2023-11-02T18:58:48.137Z,10.63
2023-11-02T19:01:22.227Z,13.70
2023-11-02T19:03:56.287Z,17.25
2023-11-02T19:06:33.397Z,15.58
2023-11-02T19:09:07.324Z,11.93
2023-11-02T19:11:42.503Z,14.45
2023-11-02T19:14:10.205Z,9.78
2023-11-02T19:16:39.900Z,8.70
2023-11-02T19:19:14.326Z,9.53
2023-11-02T19:21:46.583Z,8.73
2023-11-02T19:24:16.084Z,9.08
2023-11-02T19:26:49.795Z,9.23
2023-11-02T19:29:22.671Z,9.25
2023-11-02T19:31:53.061Z,7.47
2023-11-02T19:34:24.914Z,9.65
2023-11-02T19:36:54.908Z,9.13
2023-11-02T19:39:24.756Z,10.08
2023-11-02T19:41:53.405Z,9.75
2023-11-02T19:44:27.658Z,9.38
2023-11-02T19:49:31.705Z,8.60
2023-11-02T19:51:59.481Z,8.18
2023-11-02T19:54:27.095Z,7.55
2023-11-02T19:56:56.475Z,7.78
2023-11-02T19:59:27.064Z,7.97
2023-11-02T20:01:54.911Z,8.58
2023-11-02T20:04:23.192Z,8.40
2023-11-02T20:06:51.281Z,7.45
2023-11-02T20:09:28.463Z,7.50
2023-11-02T20:11:55.973Z,6.58
2023-11-02T20:14:26.676Z,5.53
2023-11-02T20:16:54.313Z,5.78
2023-11-02T20:19:25.375Z,5.53
2023-11-02T20:21:54.082Z,5.17
2023-11-02T20:24:21.734Z,5.72
2023-11-02T20:26:50.617Z,6.22
2023-11-02T20:29:18.388Z,5.92
2023-11-02T20:31:46.064Z,7.00
2023-11-02T20:34:15.617Z,6.72
2023-11-02T20:36:43.482Z,6.72
2023-11-02T20:39:11.879Z,6.85
2023-11-02T20:41:43.132Z,5.20
2023-11-02T20:44:10.851Z,6.80
2023-11-02T20:46:41.476Z,9.20
2023-11-02T20:49:09.428Z,9.35
2023-11-02T20:51:37.140Z,7.70
2023-11-02T20:54:04.934Z,7.25
2023-11-02T20:56:34.252Z,6.87
2023-11-02T20:59:01.852Z,11.28
2023-11-02T21:01:29.396Z,12.45
2023-11-02T21:04:00.641Z,8.25
2023-11-02T21:06:31.532Z,7.90
2023-11-02T21:08:59.345Z,6.90
2023-11-02T21:11:27.075Z,9.38
2023-11-02T21:13:54.973Z,6.42
2023-11-02T21:16:23.028Z,6.67
2023-11-02T21:18:51.804Z,9.10
2023-11-02T21:21:20.225Z,6.62
2023-11-02T21:23:49.501Z,6.65
2023-11-02T21:26:17.249Z,5.35
2023-11-02T21:28:45.077Z,5.20
2023-11-02T21:31:14.724Z,5.10
2023-11-02T21:33:42.462Z,7.33
2023-11-02T21:36:10.293Z,8.13
2023-11-02T21:38:39.709Z,7.67
2023-11-02T21:41:10.083Z,5.70
2023-11-02T21:43:38.476Z,5.33
2023-11-02T21:46:10.039Z,4.60
2023-11-02T21:48:37.749Z,5.33
2023-11-02T21:51:05.535Z,5.67
2023-11-02T21:53:33.141Z,5.28
2023-11-02T21:56:00.919Z,4.85
2023-11-02T21:58:28.549Z,5.08
2023-11-02T22:00:56.204Z,5.35
2023-11-02T22:03:23.690Z,5.00
2023-11-02T22:05:51.243Z,4.65
2023-11-02T22:08:18.715Z,5.33
2023-11-02T22:10:47.265Z,5.37
2023-11-02T22:13:14.721Z,5.30
2023-11-02T22:15:42.372Z,4.83
2023-11-02T22:18:10.399Z,4.80
2023-11-02T22:20:38.215Z,4.87
2023-11-02T22:23:05.906Z,4.40
2023-11-02T22:25:33.562Z,4.78
2023-11-02T22:28:01.315Z,4.80
2023-11-02T22:30:30.614Z,5.35
2023-11-02T22:32:58.357Z,5.20
2023-11-02T22:35:26.027Z,5.00
2023-11-02T22:37:54.088Z,4.80
2023-11-02T22:40:22.271Z,4.72
2023-11-02T22:42:50.221Z,4.90
2023-11-02T22:45:18.011Z,4.10
2023-11-02T22:47:45.790Z,4.45
2023-11-02T22:50:13.429Z,5.20
2023-11-02T22:52:41.005Z,5.83
2023-11-02T22:55:09.252Z,4.85
2023-11-02T22:57:37.205Z,4.45
2023-11-02T23:00:08.941Z,4.83
2023-11-02T23:02:36.532Z,4.47
2023-11-02T23:05:06.451Z,4.12
2023-11-02T23:07:34.145Z,4.33
2023-11-02T23:10:01.951Z,3.80
2023-11-02T23:12:32.390Z,4.40
2023-11-02T23:15:01.608Z,4.08
2023-11-02T23:17:30.655Z,3.98
2023-11-02T23:19:58.282Z,3.40
2023-11-02T23:22:25.815Z,2.87
2023-11-02T23:24:53.435Z,3.25
2023-11-02T23:27:21.941Z,3.40
2023-11-02T23:29:49.485Z,3.10
2023-11-02T23:32:17.030Z,2.80
2023-11-02T23:34:45.105Z,2.83
2023-11-02T23:37:12.813Z,2.50
2023-11-02T23:39:40.683Z,2.50
2023-11-02T23:42:08.404Z,2.75
2023-11-02T23:44:36.007Z,2.90
2023-11-02T23:47:03.894Z,2.58
2023-11-02T23:49:31.722Z,2.80
2023-11-02T23:51:59.515Z,2.92
2023-11-02T23:54:27.343Z,2.80
2023-11-02T23:56:54.911Z,3.08
2023-11-02T23:59:23.465Z,2.77
